createdAt,value
2018-08-19T00:00:33.375Z,96003.3
2018-08-19T00:01:35.833Z,96005.7
2018-08-19T00:02:37.752Z,96004.2
2018-08-19T00:03:40.205Z,96004.2
2018-08-19T00:04:42.647Z,96004.3
2018-08-19T00:05:44.268Z,96007.5
2018-08-19T00:06:46.719Z,96009.2
2018-08-19T00:07:49.164Z,96007.6
2018-08-19T00:08:51.049Z,96003.2
2018-08-19T00:09:53.231Z,96004.8
2018-08-19T00:10:55.415Z,96005.9
2018-08-19T00:11:57.020Z,96005
2018-08-19T00:12:59.175Z,96003.4
2018-08-19T00:14:01.638Z,96006.8
2018-08-19T00:15:04.077Z,96008.4
2018-08-19T00:16:05.957Z,96008.9
2018-08-19T00:17:08.140Z,96005.1
2018-08-19T00:18:10.066Z,96005.1
2018-08-19T00:19:12.249Z,96009
2018-08-19T00:20:14.685Z,96008
2018-08-19T00:21:16.869Z,96012.4
2018-08-19T00:22:19.317Z,96011.2
2018-08-19T00:23:20.960Z,96004.5
2018-08-19T00:24:23.094Z,96007.4
2018-08-19T00:25:25.263Z,96005.5
2018-08-19T00:26:27.709Z,96009.9
2018-08-19T00:27:30.159Z,96013.8
2018-08-19T00:28:32.601Z,96012.5
2018-08-19T00:29:34.487Z,96015
2018-08-19T00:30:36.404Z,96015.9
2018-08-19T00:31:38.589Z,96019.8
2018-08-19T00:32:41.021Z,96016.8
2018-08-19T00:33:43.473Z,96023.6
2018-08-19T00:34:45.656Z,96021.9
2018-08-19T00:35:47.813Z,96020.8
2018-08-19T00:36:49.998Z,96020.4
2018-08-19T00:37:52.434Z,96021.5
2018-08-19T00:38:54.621Z,96021.4
2018-08-19T00:39:57.064Z,96019
2018-08-19T00:40:59.524Z,96021.5
2018-08-19T00:42:01.669Z,96014.3
2018-08-19T00:43:04.126Z,96008.1
2018-08-19T00:44:06.308Z,96008.8
2018-08-19T00:45:08.766Z,96009
2018-08-19T00:46:11.214Z,96012.2
2018-08-19T00:47:13.382Z,96006.2
2018-08-19T00:48:15.567Z,96008.4
2018-08-19T00:49:17.746Z,96009.3
2018-08-19T00:50:20.197Z,96010.6
2018-08-19T00:51:22.648Z,96014.3
2018-08-19T00:52:25.103Z,96012.5
2018-08-19T00:53:27.265Z,96014.9
2018-08-19T00:54:29.706Z,96015.5
2018-08-19T00:55:32.147Z,96013.7
2018-08-19T00:56:34.058Z,96015.1
2018-08-19T00:57:36.245Z,96011.5
2018-08-19T00:58:38.705Z,96018.5
2018-08-19T00:59:40.858Z,96019.1
2018-08-19T01:00:43.012Z,96020.4
2018-08-19T01:01:45.155Z,96019.6
2018-08-19T01:02:47.320Z,96014.8
2018-08-19T01:03:49.769Z,96018.6
2018-08-19T01:04:51.380Z,96012.2
2018-08-19T01:05:53.556Z,96020.4
2018-08-19T01:06:55.518Z,96019.5
2018-08-19T01:07:57.427Z,96019.9
2018-08-19T01:08:59.871Z,96017.9
2018-08-19T01:10:02.042Z,96017.4
2018-08-19T01:11:04.218Z,96014.6
2018-08-19T01:12:06.657Z,96013.9
2018-08-19T01:13:08.879Z,96011.5
2018-08-19T01:14:11.313Z,96012.1
2018-08-19T01:15:13.480Z,96013.4
2018-08-19T01:16:15.628Z,96017.3
2018-08-19T01:17:17.794Z,96016.3
2018-08-19T01:18:20.247Z,96021.1
2018-08-19T01:19:22.689Z,96019.5
2018-08-19T01:20:25.154Z,96015.9
2018-08-19T01:21:27.328Z,96020.3
2018-08-19T01:22:29.505Z,96018.7
2018-08-19T01:23:31.690Z,96020.7
2018-08-19T01:24:33.874Z,96024.1
2018-08-19T01:25:35.495Z,96020.4
2018-08-19T01:26:37.657Z,96013.7
2018-08-19T01:27:39.541Z,96013.7
2018-08-19T01:28:41.990Z,96015.7
2018-08-19T01:29:44.439Z,96014.4
2018-08-19T01:30:46.885Z,96015.2
2018-08-19T01:31:49.330Z,96013
2018-08-19T01:32:50.948Z,96012.4
2018-08-19T01:33:53.389Z,96013.2
2018-08-19T01:34:55.849Z,96016.6
2018-08-19T01:35:58.301Z,96012.8
2018-08-19T01:37:00.762Z,96015.5
2018-08-19T01:38:02.936Z,96012.6
2018-08-19T01:39:04.838Z,96015
2018-08-19T01:40:07.289Z,96015.2
2018-08-19T01:41:09.198Z,96016.8
2018-08-19T01:42:11.641Z,96018.9
2018-08-19T01:43:13.830Z,96014.2
2018-08-19T01:44:15.984Z,96017.4
2018-08-19T01:45:18.158Z,96020.5
2018-08-19T01:46:19.809Z,96014
2018-08-19T01:47:21.985Z,96014.1
2018-08-19T01:48:24.640Z,96015.8
2018-08-19T01:49:27.092Z,96015.5
2018-08-19T01:50:29.286Z,96016.9
2018-08-19T01:51:31.463Z,96016.1
2018-08-19T01:52:33.906Z,96014.5
2018-08-19T01:53:36.079Z,96021.2
2018-08-19T01:54:38.248Z,96017.4
2018-08-19T01:55:40.147Z,96015.5
2018-08-19T01:56:42.587Z,96014
2018-08-19T01:57:45.037Z,96016.1
2018-08-19T01:58:47.219Z,96016.9
2018-08-19T01:59:49.093Z,96011.6
2018-08-19T02:00:51.279Z,96015.4
2018-08-19T02:01:53.465Z,96013.1
2018-08-19T02:02:55.650Z,96009.3
2018-08-19T02:03:58.094Z,96010.6
2018-08-19T02:05:00.268Z,96010.9
2018-08-19T02:06:02.416Z,96017.6
2018-08-19T02:07:04.854Z,96019
2018-08-19T02:08:07.027Z,96019
2018-08-19T02:09:09.492Z,96016.5
2018-08-19T02:10:11.674Z,96014
2018-08-19T02:11:13.580Z,96016.9
2018-08-19T02:12:16.037Z,96016.4
2018-08-19T02:13:17.681Z,96017.3
2018-08-19T02:14:20.127Z,96013.5
2018-08-19T02:15:22.305Z,96015.9
2018-08-19T02:16:24.490Z,96015.7
2018-08-19T02:17:26.396Z,96013.1
2018-08-19T02:18:28.583Z,96016
2018-08-19T02:19:30.763Z,96018.1
2018-08-19T02:20:33.089Z,96018.5
2018-08-19T02:21:35.423Z,96012.4
2018-08-19T02:22:37.860Z,96012.6
2018-08-19T02:23:40.026Z,96014.1
2018-08-19T02:24:41.919Z,96011.3
2018-08-19T02:25:44.100Z,96008.7
2018-08-19T02:26:46.286Z,96008.8
2018-08-19T02:27:48.728Z,96012.7
2018-08-19T02:28:50.907Z,96010.4
2018-08-19T02:29:52.816Z,96007.6
2018-08-19T02:30:54.697Z,96004.4
2018-08-19T02:31:57.144Z,96004.4
2018-08-19T02:32:59.049Z,96008.7
2018-08-19T02:34:01.206Z,96007.6
2018-08-19T02:35:03.391Z,96008
2018-08-19T02:36:05.840Z,96006.2
2018-08-19T02:37:08.019Z,96007.4
2018-08-19T02:38:10.196Z,96006.2
2018-08-19T02:39:12.397Z,96005
2018-08-19T02:40:14.585Z,96005
2018-08-19T02:41:16.771Z,96002.6
2018-08-19T02:42:19.216Z,96004.1
2018-08-19T02:43:21.410Z,96005.2
2018-08-19T02:44:23.585Z,96003.8
2018-08-19T02:45:25.479Z,95998.6
2018-08-19T02:46:27.921Z,96001
2018-08-19T02:47:30.087Z,96000.1
2018-08-19T02:48:32.527Z,95998.3
2018-08-19T02:49:34.707Z,95997.6
2018-08-19T02:50:36.881Z,95996.9
2018-08-19T02:51:39.046Z,95995.4
2018-08-19T02:52:41.214Z,95995.1
2018-08-19T02:53:43.390Z,95994.9
2018-08-19T02:54:45.826Z,95991.5
2018-08-19T02:55:48.287Z,95992.5
2018-08-19T02:56:50.755Z,95988.4
2018-08-19T02:57:53.191Z,95991.2
2018-08-19T02:58:55.117Z,95991.4
2018-08-19T02:59:57.560Z,95993.7
2018-08-19T03:01:00.010Z,95997.3
2018-08-19T03:02:02.464Z,95994
2018-08-19T03:03:04.909Z,95999
2018-08-19T03:04:07.081Z,95995.8
2018-08-19T03:05:09.518Z,95994.5
2018-08-19T03:06:11.138Z,95999.1
2018-08-19T03:07:13.591Z,95996.5
2018-08-19T03:08:16.038Z,95997.6
2018-08-19T03:09:18.479Z,95996.5
2018-08-19T03:10:20.653Z,95993.4
2018-08-19T03:11:22.570Z,95995.8
2018-08-19T03:12:24.465Z,95995.6
2018-08-19T03:13:26.627Z,95994.1
2018-08-19T03:14:28.551Z,95992.7
2018-08-19T03:15:30.725Z,95991.9
2018-08-19T03:16:33.168Z,95995.8
2018-08-19T03:17:35.623Z,95994
2018-08-19T03:18:38.076Z,95993.5
2018-08-19T03:19:40.250Z,95993.8
2018-08-19T03:20:42.174Z,95992.9
2018-08-19T03:21:44.617Z,95993.3
2018-08-19T03:22:46.790Z,95987.7
2018-08-19T03:23:48.943Z,95992.3
2018-08-19T03:24:50.855Z,95989
2018-08-19T03:25:53.068Z,95990
2018-08-19T03:26:55.507Z,95991.4
2018-08-19T03:27:57.700Z,95995.6
2018-08-19T03:28:59.876Z,95987.1
2018-08-19T03:30:02.034Z,95999.2
2018-08-19T03:31:04.539Z,95991.9
2018-08-19T03:32:06.166Z,95991.7
2018-08-19T03:33:08.319Z,95996.6
2018-08-19T03:34:10.761Z,95992.8
2018-08-19T03:35:13.299Z,95996
2018-08-19T03:36:15.748Z,95990.3
2018-08-19T03:37:17.627Z,95992.3
2018-08-19T03:38:20.079Z,95991.9
2018-08-19T03:39:22.518Z,95992.8
2018-08-19T03:40:24.966Z,95990.7
2018-08-19T03:41:27.414Z,95994
2018-08-19T03:42:29.617Z,95986.2
2018-08-19T03:43:32.065Z,95995
2018-08-19T03:44:34.232Z,95993.3
2018-08-19T03:45:36.148Z,95994
2018-08-19T03:46:38.605Z,95990.5
2018-08-19T03:47:40.773Z,95994.2
2018-08-19T03:48:42.957Z,95995.8
2018-08-19T03:49:45.397Z,95997.5
2018-08-19T03:50:47.838Z,95999
2018-08-19T03:51:50.275Z,95997.4
2018-08-19T03:52:52.447Z,95996.7
2018-08-19T03:53:54.616Z,95994.6
2018-08-19T03:54:57.061Z,95991.8
2018-08-19T03:55:58.981Z,95996.3
2018-08-19T03:57:01.157Z,95995.7
2018-08-19T03:58:03.070Z,95995.8
2018-08-19T03:59:05.228Z,95994.9
2018-08-19T04:00:07.407Z,95999
2018-08-19T04:01:09.846Z,95995
2018-08-19T04:02:12.059Z,95999.6
2018-08-19T04:03:14.256Z,95997
2018-08-19T04:04:16.701Z,95999
2018-08-19T04:05:18.916Z,95999.2
2018-08-19T04:06:21.369Z,95998.5
2018-08-19T04:07:23.542Z,96000.1
2018-08-19T04:08:25.995Z,96001
2018-08-19T04:09:28.443Z,95996.9
2018-08-19T04:10:30.894Z,96004.3
2018-08-19T04:11:33.342Z,96003.6
2018-08-19T04:12:35.797Z,96005.7
2018-08-19T04:13:37.709Z,96003.8
2018-08-19T04:14:39.893Z,96009.9
2018-08-19T04:15:42.344Z,96008.5
2018-08-19T04:16:44.802Z,96010.1
2018-08-19T04:17:47.245Z,96007.3
2018-08-19T04:18:49.397Z,96009.8
2018-08-19T04:19:51.584Z,96008.5
2018-08-19T04:20:54.026Z,96012.4
2018-08-19T04:21:56.214Z,96009.9
2018-08-19T04:22:58.386Z,96017
2018-08-19T04:24:00.822Z,96012.7
2018-08-19T04:25:03.008Z,96014.3
2018-08-19T04:26:05.203Z,96013.1
2018-08-19T04:27:07.379Z,96010.1
2018-08-19T04:28:09.304Z,96012.3
2018-08-19T04:29:11.172Z,96010.5
2018-08-19T04:30:13.322Z,96012.2
2018-08-19T04:31:15.768Z,96010.2
2018-08-19T04:32:17.382Z,96008
2018-08-19T04:33:19.552Z,96006.2
2018-08-19T04:34:21.739Z,96005.7
2018-08-19T04:35:23.627Z,96009
2018-08-19T04:36:25.279Z,96010.6
2018-08-19T04:37:27.295Z,96014.2
2018-08-19T04:38:29.494Z,96014.1
2018-08-19T04:39:31.934Z,96009.3
2018-08-19T04:40:34.373Z,96012.9
2018-08-19T04:41:36.814Z,96004.8
2018-08-19T04:42:39.029Z,96008
2018-08-19T04:43:41.467Z,96007
2018-08-19T04:44:43.947Z,96005.2
2018-08-19T04:45:46.393Z,96007.5
2018-08-19T04:46:48.851Z,96009.3
2018-08-19T04:47:51.000Z,96008.1
2018-08-19T04:48:53.458Z,96010.9
2018-08-19T04:49:55.653Z,96009.4
2018-08-19T04:50:58.101Z,96011.4
2018-08-19T04:51:59.755Z,96013.5
2018-08-19T04:53:01.919Z,96014.4
2018-08-19T04:54:04.390Z,96015.2
2018-08-19T04:55:06.836Z,96013.2
2018-08-19T04:56:09.292Z,96014
2018-08-19T04:57:11.481Z,96013.4
2018-08-19T04:58:13.646Z,96012.6
2018-08-19T04:59:15.566Z,96011
2018-08-19T05:00:17.749Z,96012.9
2018-08-19T05:01:19.360Z,96015.9
2018-08-19T05:02:22.674Z,96018.3
2018-08-19T05:03:24.757Z,96015.9
2018-08-19T05:04:27.206Z,96016.9
2018-08-19T05:05:29.660Z,96019.1
2018-08-19T05:06:31.823Z,96019.9
2018-08-19T05:07:33.995Z,96018.4
2018-08-19T05:08:36.170Z,96022
2018-08-19T05:09:38.321Z,96027.5
2018-08-19T05:10:40.198Z,96026.1
2018-08-19T05:11:41.815Z,96025.8
2018-08-19T05:12:43.989Z,96025.5
2018-08-19T05:13:46.467Z,96027.9
2018-08-19T05:14:48.903Z,96025.4
2018-08-19T05:15:51.344Z,96024.8
2018-08-19T05:16:53.329Z,96027
2018-08-19T05:17:54.952Z,96026.7
2018-08-19T05:18:57.399Z,96027.2
2018-08-19T05:19:59.586Z,96024.9
2018-08-19T05:21:02.043Z,96025.9
2018-08-19T05:22:04.199Z,96021.5
2018-08-19T05:23:06.367Z,96027
2018-08-19T05:24:08.543Z,96028.1
2018-08-19T05:25:10.982Z,96024.4
2018-08-19T05:26:13.434Z,96026.1
2018-08-19T05:27:15.595Z,96023.6
2018-08-19T05:28:17.641Z,96027.9
2018-08-19T05:29:19.839Z,96030.7
2018-08-19T05:30:22.025Z,96030.1
2018-08-19T05:31:24.542Z,96035.5
2018-08-19T05:32:26.776Z,96033.6
2018-08-19T05:33:29.239Z,96037.6
2018-08-19T05:34:31.417Z,96037.1
2018-08-19T05:35:33.858Z,96034.1
2018-08-19T05:36:36.315Z,96033.9
2018-08-19T05:37:38.764Z,96033.3
2018-08-19T05:38:40.951Z,96035.3
2018-08-19T05:39:43.132Z,96032.9
2018-08-19T05:40:45.300Z,96030.8
2018-08-19T05:41:47.476Z,96030.8
2018-08-19T05:42:49.642Z,96030.6
2018-08-19T05:43:51.556Z,96030.3
2018-08-19T05:44:53.737Z,96030.8
2018-08-19T05:45:56.184Z,96030
2018-08-19T05:46:58.675Z,96034.9
2018-08-19T05:48:00.857Z,96035.1
2018-08-19T05:49:03.318Z,96037.8
2018-08-19T05:50:05.488Z,96038.3
2018-08-19T05:51:07.359Z,96038.4
2018-08-19T05:52:09.822Z,96038.3
2018-08-19T05:53:12.266Z,96044.3
2018-08-19T05:54:13.867Z,96043.3
2018-08-19T05:55:16.330Z,96039.7
2018-08-19T05:56:18.786Z,96045.5
2018-08-19T05:57:21.237Z,96046.6
2018-08-19T05:58:23.423Z,96045.6
2018-08-19T05:59:25.591Z,96043.5
2018-08-19T06:00:27.193Z,96049.1
2018-08-19T06:01:29.376Z,96049.8
2018-08-19T06:02:31.557Z,96049.4
2018-08-19T06:03:33.731Z,96048.3
2018-08-19T06:04:36.222Z,96048.4
2018-08-19T06:05:38.390Z,96049.5
2018-08-19T06:06:40.316Z,96050.9
2018-08-19T06:07:43.518Z,96053.8
2018-08-19T06:08:46.102Z,96052.9
2018-08-19T06:09:48.549Z,96057.1
2018-08-19T06:10:50.470Z,96052.2
2018-08-19T06:11:52.635Z,96052.1
2018-08-19T06:12:54.810Z,96050.8
2018-08-19T06:13:57.267Z,96055.9
2018-08-19T06:14:59.173Z,96050.3
2018-08-19T06:16:01.440Z,96051.2
2018-08-19T06:17:04.063Z,96052.1
2018-08-19T06:18:06.524Z,96053.1
2018-08-19T06:19:08.977Z,96053.7
2018-08-19T06:20:11.160Z,96052.7
2018-08-19T06:21:13.605Z,96053.7
2018-08-19T06:22:16.056Z,96055
2018-08-19T06:23:18.236Z,96057.1
2018-08-19T06:24:20.426Z,96055.5
2018-08-19T06:25:22.605Z,96053.3
2018-08-19T06:26:24.765Z,96057.6
2018-08-19T06:27:26.938Z,96054.5
2018-08-19T06:28:29.090Z,96056.3
2018-08-19T06:29:31.267Z,96054.7
2018-08-19T06:30:33.715Z,96055.4
2018-08-19T06:31:36.168Z,96053.6
2018-08-19T06:32:38.357Z,96053
2018-08-19T06:33:40.540Z,96052.2
2018-08-19T06:34:43.064Z,96052.7
2018-08-19T06:35:45.001Z,96052.6
2018-08-19T06:36:47.456Z,96050.8
2018-08-19T06:37:49.917Z,96055.8
2018-08-19T06:38:52.081Z,96053.2
2018-08-19T06:39:54.257Z,96055.7
2018-08-19T06:40:56.716Z,96054.6
2018-08-19T06:41:59.178Z,96053.5
2018-08-19T06:43:01.426Z,96052.3
2018-08-19T06:44:03.657Z,96052
2018-08-19T06:45:05.585Z,96050.5
2018-08-19T06:46:07.744Z,96053.5
2018-08-19T06:47:10.186Z,96051.2
2018-08-19T06:48:12.643Z,96048.3
2018-08-19T06:49:14.553Z,96048
2018-08-19T06:50:16.752Z,96050.8
2018-08-19T06:51:19.629Z,96050.3
2018-08-19T06:52:22.479Z,96049.4
2018-08-19T06:53:24.371Z,96051.7
2018-08-19T06:54:26.333Z,96048.9
2018-08-19T06:55:28.844Z,96050.5
2018-08-19T06:56:31.301Z,96048.1
2018-08-19T06:57:33.447Z,96049.9
2018-08-19T06:58:35.597Z,96049.8
2018-08-19T06:59:37.777Z,96049.4
2018-08-19T07:00:40.244Z,96051.6
2018-08-19T07:01:42.815Z,96043.1
2018-08-19T07:02:45.626Z,96049.5
2018-08-19T07:03:48.131Z,96048.8
2018-08-19T07:04:50.451Z,96050
2018-08-19T07:05:52.639Z,96046.6
2018-08-19T07:06:55.119Z,96049.4
2018-08-19T07:07:57.638Z,96050.3
2018-08-19T07:09:00.129Z,96048.4
2018-08-19T07:10:02.044Z,96049.8
2018-08-19T07:11:04.545Z,96049.2
2018-08-19T07:12:07.040Z,96049.7
2018-08-19T07:13:09.505Z,96047.6
2018-08-19T07:14:11.408Z,96044.1
2018-08-19T07:15:13.576Z,96044.2
2018-08-19T07:16:15.759Z,96046.3
2018-08-19T07:17:18.207Z,96044.1
2018-08-19T07:18:20.123Z,96045.1
2018-08-19T07:19:22.565Z,96046.9
2018-08-19T07:20:24.467Z,96046.1
2018-08-19T07:21:26.930Z,96045.4
2018-08-19T07:22:29.100Z,96044.5
2018-08-19T07:23:31.577Z,96047.8
2018-08-19T07:24:33.735Z,96047
2018-08-19T07:25:35.907Z,96051.7
2018-08-19T07:26:38.342Z,96047.3
2018-08-19T07:27:40.797Z,96048
2018-08-19T07:28:42.982Z,96046.6
2018-08-19T07:29:45.872Z,96047.5
2018-08-19T07:30:48.547Z,96051.3
2018-08-19T07:31:50.724Z,96050.2
2018-08-19T07:32:52.933Z,96048.3
2018-08-19T07:33:54.816Z,96047.4
2018-08-19T07:34:57.270Z,96047.5
2018-08-19T07:35:59.415Z,96048.9
2018-08-19T07:37:02.230Z,96046.6
2018-08-19T07:38:04.522Z,96048.1
2018-08-19T07:39:06.693Z,96045.3
2018-08-19T07:40:09.144Z,96046.5
2018-08-19T07:41:11.340Z,96045.5
2018-08-19T07:42:13.787Z,96049.8
2018-08-19T07:43:15.719Z,96045.4
2018-08-19T07:44:18.171Z,96047.7
2018-08-19T07:45:20.362Z,96048.3
2018-08-19T07:46:22.515Z,96049.1
2018-08-19T07:47:24.424Z,96047.6
2018-08-19T07:48:26.319Z,96048.8
2018-08-19T07:49:28.768Z,96048.4
2018-08-19T07:50:30.949Z,96047.8
2018-08-19T07:51:33.465Z,96047.1
2018-08-19T07:52:35.677Z,96047.2
2018-08-19T07:53:38.122Z,96043.6
2018-08-19T07:54:39.998Z,96046.7
2018-08-19T07:55:42.456Z,96043.2
2018-08-19T07:56:44.637Z,96039.8
2018-08-19T07:57:47.079Z,96040.9
2018-08-19T07:58:49.536Z,96040.6
2018-08-19T07:59:51.719Z,96043.5
2018-08-19T08:00:54.163Z,96045.8
2018-08-19T08:01:56.603Z,96047.3
2018-08-19T08:02:58.782Z,96048.7
2018-08-19T08:04:01.215Z,96049.1
2018-08-19T08:05:03.369Z,96047.8
2018-08-19T08:06:05.543Z,96048.3
2018-08-19T08:07:07.407Z,96043.7
2018-08-19T08:08:09.588Z,96047.9
2018-08-19T08:09:11.766Z,96048.8
2018-08-19T08:10:13.689Z,96049.3
2018-08-19T08:11:15.860Z,96051.5
2018-08-19T08:12:18.315Z,96050.6
2018-08-19T08:13:20.775Z,96051.3
2018-08-19T08:14:23.218Z,96048.9
2018-08-19T08:15:25.387Z,96048.5
2018-08-19T08:16:27.582Z,96049.8
2018-08-19T08:17:29.485Z,96049.5
2018-08-19T08:18:31.934Z,96050
2018-08-19T08:19:34.386Z,96053.4
2018-08-19T08:20:36.296Z,96054.8
2018-08-19T08:21:38.465Z,96053.8
2018-08-19T08:22:41.424Z,96052.4
2018-08-19T08:23:43.612Z,96055.8
2018-08-19T08:24:45.510Z,96052.5
2018-08-19T08:25:47.664Z,96054.6
2018-08-19T08:26:50.543Z,96054.4
2018-08-19T08:27:52.705Z,96053.1
2018-08-19T08:28:54.585Z,96056
2018-08-19T08:29:56.754Z,96054.1
2018-08-19T08:30:59.246Z,96054.3
2018-08-19T08:32:01.781Z,96049.4
2018-08-19T08:33:04.079Z,96049.8
2018-08-19T08:34:06.529Z,96049.4
2018-08-19T08:35:08.990Z,96047.7
2018-08-19T08:36:11.169Z,96051.7
2018-08-19T08:37:13.068Z,96048.6
2018-08-19T08:38:15.555Z,96045.7
2018-08-19T08:39:17.483Z,96047.4
2018-08-19T08:40:19.931Z,96046
2018-08-19T08:41:21.849Z,96044
2018-08-19T08:42:24.299Z,96044.1
2018-08-19T08:43:26.547Z,96043.7
2018-08-19T08:44:28.997Z,96041.3
2018-08-19T08:45:31.451Z,96040.4
2018-08-19T08:46:33.894Z,96039.6
2018-08-19T08:47:36.537Z,96040.2
2018-08-19T08:48:39.319Z,96041.8
2018-08-19T08:49:41.768Z,96040.2
2018-08-19T08:50:44.207Z,96036.4
2018-08-19T08:51:46.954Z,96037.6
2018-08-19T08:52:49.122Z,96032.9
2018-08-19T08:53:51.032Z,96035
2018-08-19T08:54:53.225Z,96028
2018-08-19T08:55:55.688Z,96029.8
2018-08-19T08:56:57.871Z,96032.2
2018-08-19T08:58:00.020Z,96031.4
2018-08-19T08:59:02.475Z,96028.3
2018-08-19T09:00:04.657Z,96023.8
2018-08-19T09:01:06.837Z,96027.6
2018-08-19T09:02:08.745Z,96029.7
2018-08-19T09:03:11.069Z,96026.6
2018-08-19T09:04:13.250Z,96023.5
2018-08-19T09:05:15.701Z,96031
2018-08-19T09:06:17.897Z,96027.5
2018-08-19T09:07:20.068Z,96022
2018-08-19T09:08:22.264Z,96024.9
2018-08-19T09:09:24.452Z,96022.7
2018-08-19T09:10:26.627Z,96025.7
2018-08-19T09:11:29.081Z,96027.6
2018-08-19T09:12:31.547Z,96023.8
2018-08-19T09:13:33.723Z,96023.3
2018-08-19T09:14:36.191Z,96023.7
2018-08-19T09:15:38.365Z,96023.3
2018-08-19T09:16:40.508Z,96022.6
2018-08-19T09:17:42.662Z,96020.5
2018-08-19T09:18:45.114Z,96022.6
2018-08-19T09:19:47.311Z,96023.3
2018-08-19T09:20:49.455Z,96022.2
2018-08-19T09:21:51.633Z,96020.6
2018-08-19T09:22:54.009Z,96023.8
2018-08-19T09:23:56.549Z,96022.8
2018-08-19T09:24:58.428Z,96019.8
2018-08-19T09:26:00.888Z,96022.9
2018-08-19T09:27:03.372Z,96020.6
2018-08-19T09:28:05.278Z,96016.6
2018-08-19T09:29:07.444Z,96017.1
2018-08-19T09:30:09.897Z,96015.2
2018-08-19T09:31:12.088Z,96013.8
2018-08-19T09:32:14.536Z,96017
2018-08-19T09:33:16.720Z,96016
2018-08-19T09:34:18.902Z,96013.7
2018-08-19T09:35:20.787Z,96016.7
2018-08-19T09:36:23.229Z,96011.7
2018-08-19T09:37:25.430Z,96012.4
2018-08-19T09:38:27.321Z,96010.3
2018-08-19T09:39:29.509Z,96005.5
2018-08-19T09:40:31.958Z,96010.9
2018-08-19T09:41:34.152Z,96009.6
2018-08-19T09:42:36.360Z,96010.4
2018-08-19T09:43:38.532Z,96007.9
2018-08-19T09:44:40.696Z,96010.5
2018-08-19T09:45:42.877Z,96007
2018-08-19T09:46:45.040Z,96010.4
2018-08-19T09:47:48.199Z,96010.1
2018-08-19T09:48:50.566Z,96008.8
2018-08-19T09:49:52.953Z,96004.6
2018-08-19T09:50:55.466Z,96006
2018-08-19T09:51:57.377Z,96005.5
2018-08-19T09:52:59.835Z,96004
2018-08-19T09:54:02.075Z,96002.5
2018-08-19T09:55:04.557Z,96005.1
2018-08-19T09:56:06.732Z,96000.1
2018-08-19T09:57:08.633Z,96001.6
2018-08-19T09:58:10.529Z,95998.7
2018-08-19T09:59:12.981Z,96002.1
2018-08-19T10:00:15.443Z,96001
2018-08-19T10:01:17.888Z,95998.9
2018-08-19T10:02:20.082Z,95997.5
2018-08-19T10:03:22.004Z,95995.4
2018-08-19T10:04:24.448Z,95994.4
2018-08-19T10:05:26.908Z,95994.9
2018-08-19T10:06:29.092Z,95992.4
2018-08-19T10:07:31.994Z,95988.3
2018-08-19T10:08:34.531Z,95992
2018-08-19T10:09:36.450Z,95991
2018-08-19T10:10:38.363Z,95988.6
2018-08-19T10:11:40.825Z,95993.5
2018-08-19T10:12:43.266Z,95989.5
2018-08-19T10:13:45.850Z,95990.8
2018-08-19T10:14:47.938Z,95991.1
2018-08-19T10:15:50.109Z,95986
2018-08-19T10:16:52.556Z,95982.8
2018-08-19T10:17:54.492Z,95980.8
2018-08-19T10:18:56.956Z,95982.2
2018-08-19T10:19:59.123Z,95978.7
2018-08-19T10:21:01.593Z,95981.3
2018-08-19T10:22:03.792Z,95977
2018-08-19T10:23:06.239Z,95978
2018-08-19T10:24:08.156Z,95975.1
2018-08-19T10:25:10.348Z,95972.5
2018-08-19T10:26:12.527Z,95977.5
2018-08-19T10:27:14.966Z,95976
2018-08-19T10:28:16.857Z,95975.8
2018-08-19T10:29:19.306Z,95973.6
2018-08-19T10:30:21.216Z,95973.7
2018-08-19T10:31:24.049Z,95974.4
2018-08-19T10:32:26.444Z,95969.4
2018-08-19T10:33:28.631Z,95970.4
2018-08-19T10:34:30.507Z,95971.6
2018-08-19T10:35:32.688Z,95967
2018-08-19T10:36:35.145Z,95964.6
2018-08-19T10:37:37.598Z,95965.6
2018-08-19T10:38:40.050Z,95963.8
2018-08-19T10:39:42.506Z,95965.9
2018-08-19T10:40:44.687Z,95965.8
2018-08-19T10:41:46.860Z,95966.2
2018-08-19T10:42:49.034Z,95963.6
2018-08-19T10:43:51.310Z,95964.7
2018-08-19T10:44:53.481Z,95968.1
2018-08-19T10:45:55.385Z,95965.1
2018-08-19T10:46:57.563Z,95964.5
2018-08-19T10:47:59.769Z,95965.3
2018-08-19T10:49:01.660Z,95965.4
2018-08-19T10:50:04.113Z,95965.7
2018-08-19T10:51:06.286Z,95964.9
2018-08-19T10:52:08.464Z,95965
2018-08-19T10:53:10.651Z,95962.1
2018-08-19T10:54:12.806Z,95969.5
2018-08-19T10:55:14.717Z,95964.8
2018-08-19T10:56:17.178Z,95965.8
2018-08-19T10:57:19.353Z,95965.4
2018-08-19T10:58:21.625Z,95964
2018-08-19T10:59:24.100Z,95961.9
2018-08-19T11:00:26.546Z,95957.7
2018-08-19T11:01:28.728Z,95951.7
2018-08-19T11:02:31.182Z,95953.8
2018-08-19T11:03:33.340Z,95950.7
2018-08-19T11:04:35.791Z,95951.7
2018-08-19T11:05:37.980Z,95949.1
2018-08-19T11:06:40.071Z,95949.8
2018-08-19T11:07:42.407Z,95950.9
2018-08-19T11:08:44.864Z,95947.1
2018-08-19T11:09:47.316Z,95945.4
2018-08-19T11:10:49.227Z,95947.3
2018-08-19T11:11:51.424Z,95946.8
2018-08-19T11:12:53.870Z,95941.2
2018-08-19T11:13:56.061Z,95939.7
2018-08-19T11:14:58.509Z,95937.5
2018-08-19T11:16:00.687Z,95940
2018-08-19T11:17:03.133Z,95944.7
2018-08-19T11:18:04.765Z,95940.6
2018-08-19T11:19:07.217Z,95942.1
2018-08-19T11:20:09.416Z,95938.2
2018-08-19T11:21:11.839Z,95938.5
2018-08-19T11:22:14.300Z,95943.4
2018-08-19T11:23:16.739Z,95938.5
2018-08-19T11:24:18.614Z,95937.7
2018-08-19T11:25:20.778Z,95937.7
2018-08-19T11:26:23.232Z,95942.3
2018-08-19T11:27:25.776Z,95935.7
2018-08-19T11:28:28.268Z,95938.4
2018-08-19T11:29:30.713Z,95933.7
2018-08-19T11:30:32.633Z,95936.2
2018-08-19T11:31:35.808Z,95935.8
2018-08-19T11:32:38.491Z,95933.6
2018-08-19T11:33:40.375Z,95930.9
2018-08-19T11:34:42.835Z,95934.7
2018-08-19T11:35:45.284Z,95932.8
2018-08-19T11:36:47.202Z,95930.9
2018-08-19T11:37:49.369Z,95928.2
2018-08-19T11:38:51.863Z,95929.2
2018-08-19T11:39:54.311Z,95928.4
2018-08-19T11:40:56.486Z,95926.8
2018-08-19T11:41:58.648Z,95928.7
2018-08-19T11:43:00.815Z,95932.7
2018-08-19T11:44:02.709Z,95929.3
2018-08-19T11:45:05.158Z,95923.2
2018-08-19T11:46:07.084Z,95916.7
2018-08-19T11:47:09.519Z,95916.7
2018-08-19T11:48:11.686Z,95911.5
2018-08-19T11:49:13.850Z,95909.4
2018-08-19T11:50:16.295Z,95910
2018-08-19T11:51:18.478Z,95906.5
2018-08-19T11:52:20.379Z,95908.3
2018-08-19T11:53:22.564Z,95910
2018-08-19T11:54:25.016Z,95908.8
2018-08-19T11:55:27.927Z,95908.8
2018-08-19T11:56:30.482Z,95908.9
2018-08-19T11:57:32.927Z,95909.6
2018-08-19T11:58:35.377Z,95904.7
2018-08-19T11:59:37.537Z,95901.4
2018-08-19T12:00:40.020Z,95907.3
2018-08-19T12:01:42.467Z,95907.5
2018-08-19T12:02:44.354Z,95905.4
2018-08-19T12:03:46.794Z,95902.2
2018-08-19T12:04:48.948Z,95903.5
2018-08-19T12:05:51.134Z,95901.2
2018-08-19T12:06:53.321Z,95901
2018-08-19T12:07:55.506Z,95901.3
2018-08-19T12:08:57.962Z,95904.8
2018-08-19T12:10:00.407Z,95905.4
2018-08-19T12:11:02.869Z,95900.5
2018-08-19T12:12:05.317Z,95900.3
2018-08-19T12:13:07.211Z,95899.7
2018-08-19T12:14:09.678Z,95899
2018-08-19T12:15:11.569Z,95895.9
2018-08-19T12:16:13.505Z,95895.3
2018-08-19T12:17:15.690Z,95894.3
2018-08-19T12:18:17.569Z,95893.1
2018-08-19T12:19:19.470Z,95889.1
2018-08-19T12:20:21.675Z,95896.2
2018-08-19T12:21:24.115Z,95889.8
2018-08-19T12:22:26.291Z,95891.3
2018-08-19T12:23:28.468Z,95888.9
2018-08-19T12:24:30.931Z,95892.1
2018-08-19T12:25:32.828Z,95886.2
2018-08-19T12:26:35.288Z,95888.5
2018-08-19T12:27:37.990Z,95885
2018-08-19T12:28:40.700Z,95883.5
2018-08-19T12:29:43.150Z,95889
2018-08-19T12:30:45.600Z,95883.9
2018-08-19T12:31:47.781Z,95890
2018-08-19T12:32:49.974Z,95887
2018-08-19T12:33:52.134Z,95880.3
2018-08-19T12:34:54.303Z,95876.3
2018-08-19T12:35:56.531Z,95879.8
2018-08-19T12:36:58.820Z,95885.5
2018-08-19T12:38:01.307Z,95877.4